createdAt,value
2018-02-27T00:01:20.117Z,101631
2018-02-27T00:03:57.865Z,101638
2018-02-27T00:09:12.578Z,101628
2018-02-27T00:11:54.573Z,101609
2018-02-27T00:14:34.043Z,101628
2018-02-27T00:19:45.849Z,101632
2018-02-27T00:22:23.467Z,101608
2018-02-27T00:27:31.073Z,101630
2018-02-27T00:30:04.681Z,101632
2018-02-27T00:32:39.650Z,101633
2018-02-27T00:35:14.010Z,101643
2018-02-27T00:37:43.623Z,101634
2018-02-27T00:40:19.031Z,101656
2018-02-27T00:42:58.132Z,101647
2018-02-27T00:48:41.120Z,101656
2018-02-27T00:51:39.341Z,101649
2018-02-27T00:54:12.393Z,101655
2018-02-27T00:56:57.770Z,101647
2018-02-27T01:02:54.975Z,101647
2018-02-27T01:05:27.336Z,101652
2018-02-27T01:07:57.374Z,101662
2018-02-27T01:10:25.605Z,101659
2018-02-27T01:12:53.814Z,101657
2018-02-27T01:15:22.002Z,101654
2018-02-27T01:17:50.232Z,101646
2018-02-27T01:20:19.295Z,101653
2018-02-27T01:22:49.748Z,101656
2018-02-27T01:25:18.079Z,101655
2018-02-27T01:27:46.306Z,101654
2018-02-27T01:30:14.482Z,101636
2018-02-27T01:32:42.664Z,101642
2018-02-27T01:35:10.793Z,101634
2018-02-27T01:37:38.953Z,101637
2018-02-27T01:40:07.185Z,101622
2018-02-27T01:42:35.352Z,101633
2018-02-27T01:45:03.499Z,101638
2018-02-27T01:47:31.612Z,101630
2018-02-27T01:49:59.776Z,101635
2018-02-27T01:52:27.950Z,101627
2018-02-27T01:54:56.116Z,101607
2018-02-27T01:57:24.237Z,101612
2018-02-27T01:59:52.419Z,101616
2018-02-27T02:02:20.522Z,101613
2018-02-27T02:04:48.631Z,101612
2018-02-27T02:07:16.774Z,101613
2018-02-27T02:09:44.880Z,101618
2018-02-27T02:12:13.063Z,101606
2018-02-27T02:14:41.185Z,101612
2018-02-27T02:17:10.086Z,101606
2018-02-27T02:19:38.339Z,101603
2018-02-27T02:22:06.501Z,101608
2018-02-27T02:24:34.607Z,101597
2018-02-27T02:27:04.401Z,101598
2018-02-27T02:29:32.575Z,101594
2018-02-27T02:32:00.775Z,101597
2018-02-27T02:34:28.953Z,101595
2018-02-27T02:36:57.172Z,101601
2018-02-27T02:39:25.308Z,101603
2018-02-27T02:42:08.028Z,101593
2018-02-27T02:44:36.141Z,101599
2018-02-27T02:47:04.267Z,101601
2018-02-27T02:49:34.504Z,101589
2018-02-27T02:52:06.454Z,101592
2018-02-27T02:54:35.342Z,101597
2018-02-27T02:57:04.468Z,101598
2018-02-27T02:59:33.249Z,101605
2018-02-27T03:02:01.435Z,101597
2018-02-27T03:04:29.679Z,101595
2018-02-27T03:06:58.952Z,101595
2018-02-27T03:09:30.154Z,101603
2018-02-27T03:11:59.771Z,101598
2018-02-27T03:14:29.487Z,101606
2018-02-27T03:16:58.105Z,101605
2018-02-27T03:19:27.695Z,101600
2018-02-27T03:21:57.898Z,101590
2018-02-27T03:24:26.090Z,101583
2018-02-27T03:26:55.080Z,101591
2018-02-27T03:29:23.241Z,101601
2018-02-27T03:31:54.383Z,101598
2018-02-27T03:34:22.657Z,101582
2018-02-27T03:36:53.763Z,101581
2018-02-27T03:39:22.033Z,101587
2018-02-27T03:41:50.309Z,101573
2018-02-27T03:44:19.845Z,101589
2018-02-27T03:46:48.889Z,101575
2018-02-27T03:49:18.107Z,101581
2018-02-27T03:51:47.418Z,101574
2018-02-27T03:54:21.972Z,101565
2018-02-27T03:57:01.775Z,101573
2018-02-27T03:59:35.204Z,101568
2018-02-27T04:02:03.376Z,101565
2018-02-27T04:04:31.611Z,101576
2018-02-27T04:06:59.856Z,101564
2018-02-27T04:09:27.997Z,101568
2018-02-27T04:11:56.149Z,101560
2018-02-27T04:14:24.427Z,101558
2018-02-27T04:16:52.571Z,101553
2018-02-27T04:19:21.448Z,101560
2018-02-27T04:21:49.536Z,101560
2018-02-27T04:24:18.413Z,101561
2018-02-27T04:26:50.081Z,101561
2018-02-27T04:29:18.252Z,101565
2018-02-27T04:31:46.380Z,101563
2018-02-27T04:34:14.505Z,101560
2018-02-27T04:36:43.385Z,101560
2018-02-27T04:39:11.545Z,101567
2018-02-27T04:41:39.676Z,101571
2018-02-27T04:44:07.814Z,101565
2018-02-27T04:46:35.909Z,101558
2018-02-27T04:49:04.039Z,101558
2018-02-27T04:51:32.128Z,101562
2018-02-27T04:54:01.008Z,101555
2018-02-27T04:56:29.106Z,101553
2018-02-27T04:58:57.960Z,101550
2018-02-27T05:01:26.083Z,101548
2018-02-27T05:03:54.189Z,101559
2018-02-27T05:06:22.324Z,101553
2018-02-27T05:08:50.409Z,101553
2018-02-27T05:11:18.555Z,101545
2018-02-27T05:13:47.453Z,101554
2018-02-27T05:16:16.333Z,101548
2018-02-27T05:18:45.204Z,101553
2018-02-27T05:21:13.307Z,101550
2018-02-27T05:23:42.176Z,101549
2018-02-27T05:26:10.268Z,101548
2018-02-27T05:28:38.382Z,101555
2018-02-27T05:31:06.517Z,101553
2018-02-27T05:33:35.426Z,101543
2018-02-27T05:36:03.548Z,101557
2018-02-27T05:38:31.673Z,101553
2018-02-27T05:40:59.784Z,101546
2018-02-27T05:43:27.911Z,101550
2018-02-27T05:45:56.026Z,101549
2018-02-27T05:48:24.820Z,101551
2018-02-27T05:50:53.479Z,101539
2018-02-27T05:53:21.692Z,101542
2018-02-27T05:55:49.857Z,101545
2018-02-27T05:58:18.032Z,101537
2018-02-27T06:00:46.500Z,101551
2018-02-27T06:03:14.643Z,101556
2018-02-27T06:05:42.809Z,101554
2018-02-27T06:08:10.984Z,101556
2018-02-27T06:10:39.101Z,101563
2018-02-27T06:13:07.277Z,101562
2018-02-27T06:15:35.377Z,101562
2018-02-27T06:18:04.162Z,101560
2018-02-27T06:20:32.279Z,101553
2018-02-27T06:23:00.387Z,101551
2018-02-27T06:25:28.497Z,101552
2018-02-27T06:27:56.599Z,101560
2018-02-27T06:30:24.722Z,101564
2018-02-27T06:32:52.929Z,101565
2018-02-27T06:35:21.072Z,101562
2018-02-27T06:37:49.197Z,101560
2018-02-27T06:40:17.362Z,101565
2018-02-27T06:42:45.501Z,101564
2018-02-27T06:45:14.457Z,101565
2018-02-27T06:47:42.617Z,101558
2018-02-27T06:50:10.790Z,101572
2018-02-27T06:52:38.968Z,101566
2018-02-27T06:55:07.128Z,101563
2018-02-27T06:57:35.256Z,101553
2018-02-27T07:00:03.362Z,101565
2018-02-27T07:02:36.165Z,101566
2018-02-27T07:05:04.367Z,101563
2018-02-27T07:07:32.527Z,101567
2018-02-27T07:10:00.657Z,101570
2018-02-27T07:12:28.850Z,101570
2018-02-27T07:14:57.758Z,101560
2018-02-27T07:17:25.853Z,101559
2018-02-27T07:19:54.916Z,101564
2018-02-27T07:22:23.024Z,101556
2018-02-27T07:24:51.180Z,101551
2018-02-27T07:27:19.877Z,101553
2018-02-27T07:29:48.010Z,101558
2018-02-27T07:32:16.111Z,101556
2018-02-27T07:34:44.203Z,101551
2018-02-27T07:37:12.316Z,101554
2018-02-27T07:39:40.444Z,101555
2018-02-27T07:42:08.575Z,101543
2018-02-27T07:44:36.846Z,101547
2018-02-27T07:47:06.711Z,101552
2018-02-27T07:49:35.535Z,101551
2018-02-27T07:52:07.874Z,101563
2018-02-27T07:54:37.333Z,101555
2018-02-27T07:57:06.470Z,101558
2018-02-27T07:59:34.641Z,101558
2018-02-27T08:02:05.241Z,101543
2018-02-27T08:04:33.444Z,101543
2018-02-27T08:07:01.601Z,101547
2018-02-27T08:09:29.800Z,101545
2018-02-27T08:11:58.096Z,101541
2018-02-27T08:14:26.324Z,101544
2018-02-27T08:16:54.492Z,101525
2018-02-27T08:19:26.420Z,101526
2018-02-27T08:21:54.583Z,101526
2018-02-27T08:24:22.725Z,101524
2018-02-27T08:26:50.856Z,101523
2018-02-27T08:29:18.959Z,101527
2018-02-27T08:31:50.367Z,101525
2018-02-27T08:34:18.495Z,101519
2018-02-27T08:36:46.686Z,101526
2018-02-27T08:39:14.788Z,101529
2018-02-27T08:41:43.668Z,101517
2018-02-27T08:44:12.525Z,101514
2018-02-27T08:46:40.680Z,101511
2018-02-27T08:49:08.812Z,101513
2018-02-27T08:51:36.937Z,101509
2018-02-27T08:54:05.081Z,101512
2018-02-27T08:56:33.582Z,101521
2018-02-27T08:59:01.762Z,101511
2018-02-27T09:01:33.093Z,101505
2018-02-27T09:04:01.241Z,101507
2018-02-27T09:06:29.412Z,101494
2018-02-27T09:08:57.559Z,101514
2018-02-27T09:11:25.736Z,101494
2018-02-27T09:13:53.921Z,101498
2018-02-27T09:16:22.887Z,101491
2018-02-27T09:18:51.092Z,101495
2018-02-27T09:21:21.640Z,101490
2018-02-27T09:23:49.792Z,101488
2018-02-27T09:26:17.997Z,101481
2018-02-27T09:28:46.176Z,101474
2018-02-27T09:31:14.333Z,101484
2018-02-27T09:33:42.497Z,101474
2018-02-27T09:36:10.736Z,101474
2018-02-27T09:38:39.045Z,101467
2018-02-27T09:41:08.162Z,101470
2018-02-27T09:43:41.460Z,101550
2018-02-27T09:46:11.703Z,101466
2018-02-27T09:48:42.177Z,101458
2018-02-27T09:51:10.408Z,101466
2018-02-27T09:53:39.425Z,101453
2018-02-27T09:56:07.627Z,101455
2018-02-27T09:58:35.813Z,101455
2018-02-27T10:01:04.929Z,101445
2018-02-27T10:03:36.648Z,101457
2018-02-27T10:06:04.813Z,101460
2018-02-27T10:08:32.958Z,101451
2018-02-27T10:11:01.117Z,101449
2018-02-27T10:13:29.237Z,101442
2018-02-27T10:15:57.380Z,101435
2018-02-27T10:18:25.479Z,101449
2018-02-27T10:20:53.591Z,101441
2018-02-27T10:23:21.698Z,101441
2018-02-27T10:25:49.844Z,101434
2018-02-27T10:28:23.129Z,101436
2018-02-27T10:30:52.378Z,101442
2018-02-27T10:33:20.565Z,101443
2018-02-27T10:35:53.781Z,101422
2018-02-27T10:38:23.035Z,101432
2018-02-27T10:40:51.226Z,101427
2018-02-27T10:43:19.395Z,101434
2018-02-27T10:45:47.580Z,101426
2018-02-27T10:48:15.764Z,101425
2018-02-27T10:50:43.943Z,101432
2018-02-27T10:53:12.872Z,101427
2018-02-27T10:55:41.043Z,101422
2018-02-27T10:58:09.187Z,101421
2018-02-27T11:14:28.359Z,101413
2018-02-27T11:22:45.262Z,101396
2018-02-27T11:25:18.032Z,101391
2018-02-27T11:27:54.719Z,101394
2018-02-27T11:30:32.007Z,101387
2018-02-27T11:33:00.762Z,101387
2018-02-27T11:41:20.100Z,101366
2018-02-27T11:43:48.308Z,101374
2018-02-27T11:46:19.515Z,101378
2018-02-27T11:48:47.692Z,101371
2018-02-27T11:51:15.851Z,101367
2018-02-27T11:54:03.433Z,101361
2018-02-27T11:56:31.657Z,101362
2018-02-27T11:59:03.814Z,101362
2018-02-27T12:01:32.014Z,101361
2018-02-27T12:04:03.111Z,101367
2018-02-27T12:06:32.367Z,101357
2018-02-27T12:09:00.569Z,101346
2018-02-27T12:11:32.835Z,101352
2018-02-27T12:17:21.638Z,101338
2018-02-27T12:38:02.848Z,101322
2018-02-27T12:40:40.916Z,101315
2018-02-27T12:46:23.833Z,101330
2018-02-27T12:49:19.193Z,101317
2018-02-27T12:51:47.361Z,101323
2018-02-27T12:54:15.480Z,101318
2018-02-27T12:56:43.676Z,101300
2018-02-27T12:59:34.954Z,101291
2018-02-27T13:02:10.983Z,101292
2018-02-27T13:04:40.336Z,101298
2018-02-27T13:10:20.336Z,101284
2018-02-27T13:12:48.518Z,101286
2018-02-27T13:18:09.671Z,101281
2018-02-27T13:20:38.276Z,101265
2018-02-27T13:23:13.607Z,101270
2018-02-27T13:25:41.894Z,101277
2018-02-27T13:28:12.145Z,101268
2018-02-27T13:30:43.938Z,101275
2018-02-27T13:33:14.921Z,101274
2018-02-27T13:38:24.485Z,101274
2018-02-27T13:41:03.612Z,101263
2018-02-27T13:43:31.809Z,101270
2018-02-27T13:46:05.394Z,101270
2018-02-27T13:48:45.760Z,101261
2018-02-27T13:51:45.224Z,101253
2018-02-27T14:12:16.776Z,101249
2018-02-27T14:14:51.533Z,101244
2018-02-27T14:32:28.744Z,101221
2018-02-27T14:34:59.937Z,101211
2018-02-27T14:37:28.085Z,101206
2018-02-27T15:14:38.102Z,101203
2018-02-27T15:17:15.154Z,101199
2018-02-27T15:38:32.197Z,101182
2018-02-27T15:41:26.488Z,100685
2018-02-27T17:41:46.844Z,101201
2018-02-27T17:44:15.288Z,101211
2018-02-27T17:46:43.004Z,101212
2018-02-27T17:49:09.530Z,101198
2018-02-27T17:51:36.181Z,101200
2018-02-27T17:54:02.611Z,101207
2018-02-27T17:56:29.246Z,101200
2018-02-27T17:58:56.709Z,101209
2018-02-27T18:01:24.127Z,101201
2018-02-27T18:03:50.637Z,101201
2018-02-27T18:06:18.140Z,101209
2018-02-27T18:08:44.821Z,101207
2018-02-27T18:11:11.397Z,101197
2018-02-27T18:13:37.902Z,101199
2018-02-27T18:16:08.949Z,101203
2018-02-27T18:18:36.106Z,101202
2018-02-27T18:21:02.597Z,101201
2018-02-27T18:23:29.193Z,101202
2018-02-27T18:25:56.747Z,101209
2018-02-27T18:28:23.379Z,101199
2018-02-27T18:30:49.941Z,101203
2018-02-27T18:33:16.577Z,101194
2018-02-27T18:35:43.236Z,101191
2018-02-27T18:38:09.882Z,101200
2018-02-27T18:40:36.475Z,101189
2018-02-27T18:43:04.009Z,101182
2018-02-27T18:45:31.207Z,101197
2018-02-27T18:47:57.865Z,101194
2018-02-27T18:50:24.497Z,101198
2018-02-27T18:52:51.087Z,101201
2018-02-27T18:55:18.573Z,101197
2018-02-27T18:57:45.009Z,101198
2018-02-27T19:00:11.399Z,101186
2018-02-27T19:02:38.649Z,101191
2018-02-27T19:05:05.804Z,101199
2018-02-27T19:07:34.384Z,101191
2018-02-27T19:10:00.867Z,101189
2018-02-27T19:12:27.394Z,101195
2018-02-27T19:14:53.795Z,101188
2018-02-27T19:17:22.011Z,101191
2018-02-27T19:19:48.601Z,101186
2018-02-27T19:22:15.931Z,101195
2018-02-27T19:24:42.605Z,101185
2018-02-27T19:27:09.047Z,101181
2018-02-27T19:29:36.538Z,101178
2018-02-27T19:32:03.135Z,101184
2018-02-27T19:34:29.587Z,101182
2018-02-27T19:36:58.127Z,101190
2018-02-27T19:39:24.629Z,101185
2018-02-27T19:41:51.213Z,101184
2018-02-27T19:44:17.715Z,101190
2018-02-27T19:46:44.224Z,101193
2018-02-27T19:49:10.738Z,101184
2018-02-27T19:51:37.184Z,101195
2018-02-27T19:54:04.712Z,101201
2018-02-27T19:56:32.010Z,101195
2018-02-27T19:58:59.523Z,101196
2018-02-27T20:01:25.975Z,101184
2018-02-27T20:03:52.484Z,101188
2018-02-27T20:06:19.173Z,101052
2018-02-27T20:08:45.767Z,101185
2018-02-27T20:11:12.934Z,101180
2018-02-27T20:13:40.136Z,101185
2018-02-27T20:16:06.638Z,101193
2018-02-27T20:18:33.049Z,101186
2018-02-27T20:20:59.454Z,101200
2018-02-27T20:23:31.891Z,101197
2018-02-27T20:25:58.294Z,101195
2018-02-27T20:28:30.618Z,101203
2018-02-27T20:30:57.068Z,101198
2018-02-27T20:33:23.480Z,101206
2018-02-27T20:35:49.887Z,101213
2018-02-27T20:38:16.324Z,101207
2018-02-27T20:40:42.937Z,101204
2018-02-27T20:43:12.662Z,101206
2018-02-27T20:45:39.369Z,101209
2018-02-27T20:48:07.774Z,101210
2018-02-27T20:50:35.223Z,101212
2018-02-27T20:53:01.660Z,101214
2018-02-27T20:55:30.164Z,101213
2018-02-27T20:57:56.676Z,101210
2018-02-27T21:00:23.111Z,101210
2018-02-27T21:02:49.563Z,101215
2018-02-27T21:05:19.400Z,101210
2018-02-27T21:07:45.880Z,101219
2018-02-27T21:10:12.344Z,101223
2018-02-27T21:12:38.980Z,101222
2018-02-27T21:15:05.380Z,101234
2018-02-27T21:17:31.820Z,101222
2018-02-27T21:19:58.231Z,101221
2018-02-27T21:22:24.660Z,101230
2018-02-27T21:24:51.048Z,101227
2018-02-27T21:27:17.480Z,101219
2018-02-27T21:29:43.898Z,101211
2018-02-27T21:32:10.312Z,101211
2018-02-27T21:34:36.714Z,101211
2018-02-27T21:37:03.143Z,101208
2018-02-27T21:39:29.562Z,101214
2018-02-27T21:41:55.986Z,101213
2018-02-27T21:44:22.411Z,101218
2018-02-27T21:46:48.837Z,101215
2018-02-27T21:49:22.765Z,101215
2018-02-27T21:51:52.434Z,101215
2018-02-27T21:54:18.988Z,101214
2018-02-27T21:56:45.459Z,101225
2018-02-27T21:59:11.849Z,101223
2018-02-27T22:01:38.276Z,101219
2018-02-27T22:04:05.423Z,101219
2018-02-27T22:06:31.819Z,101218
2018-02-27T22:08:58.261Z,101214
2018-02-27T22:11:24.676Z,101215
2018-02-27T22:13:51.096Z,101218
2018-02-27T22:16:17.844Z,101217
2018-02-27T22:18:44.300Z,101210
2018-02-27T22:21:10.739Z,101219
2018-02-27T22:23:37.132Z,101216
2018-02-27T22:26:03.528Z,101209
2018-02-27T22:28:31.417Z,101216
2018-02-27T22:30:57.829Z,101216
2018-02-27T22:33:24.977Z,101224
2018-02-27T22:35:51.412Z,101214
2018-02-27T22:38:17.805Z,101215
2018-02-27T22:40:44.219Z,101208
2018-02-27T22:43:10.655Z,101213
2018-02-27T22:45:37.141Z,101213
2018-02-27T22:48:04.299Z,101210
2018-02-27T22:50:34.326Z,101212
2018-02-27T22:55:39.393Z,101222
2018-02-27T22:58:06.986Z,101221
2018-02-27T23:00:39.573Z,101226
2018-02-27T23:03:06.120Z,101224
2018-02-27T23:05:32.533Z,101225
2018-02-27T23:07:59.041Z,101227
2018-02-27T23:10:28.608Z,101214
2018-02-27T23:12:55.813Z,101213
2018-02-27T23:15:22.287Z,101212
2018-02-27T23:17:48.772Z,101212
2018-02-27T23:20:15.312Z,101212
2018-02-27T23:22:41.811Z,101208
2018-02-27T23:25:14.953Z,101222
2018-02-27T23:27:43.292Z,101214
2018-02-27T23:30:10.438Z,101209
2018-02-27T23:32:39.907Z,101212
2018-02-27T23:35:19.669Z,101219
2018-02-27T23:37:46.085Z,101223
2018-02-27T23:40:12.541Z,101219
2018-02-27T23:42:38.981Z,101234
2018-02-27T23:45:05.434Z,101226
2018-02-27T23:47:31.962Z,101233
2018-02-27T23:49:58.386Z,101231
2018-02-27T23:52:27.034Z,101233
2018-02-27T23:54:53.475Z,101234
2018-02-27T23:57:19.941Z,101236
2018-02-27T23:59:46.360Z,101239
